Time;durP1;ratioP1;P1;durP2;ratioP2;P2;SDS_P1;SDS_P2;PMS_P1;PMS_P2;Temp;Humidity;BMP_temperature;BMP_pressure;BME280_temperature;BME280_humidity;BME280_pressure;Samples;Min_cycle;Max_cycle;Signal;HPM_P1;HPM_P2
2021/03/06 00:01:05;;;;;;;16.13;7.35;;;;;;;-2.53;100.00;103378.69;5229245;28;20032;-80
2021/03/06 00:03:35;;;;;;;19.48;7.25;;;;;;;-2.59;100.00;103375.28;5213150;28;20061;-80
2021/03/06 00:06:06;;;;;;;17.17;7.00;;;;;;;-2.59;100.00;103372.66;5216879;28;20029;-80
2021/03/06 00:08:36;;;;;;;19.02;7.03;;;;;;;-2.55;100.00;103377.00;5207560;28;20025;-80
2021/03/06 00:11:07;;;;;;;22.77;7.03;;;;;;;-2.43;100.00;103376.81;5239868;28;20029;-80
2021/03/06 00:13:37;;;;;;;19.00;7.05;;;;;;;-2.30;100.00;103380.16;5241201;28;20120;-80
2021/03/06 00:16:08;;;;;;;16.83;6.85;;;;;;;-2.25;100.00;103373.06;5216736;28;20029;-80
2021/03/06 00:18:38;;;;;;;18.02;7.18;;;;;;;-2.19;100.00;103368.59;5218433;28;20030;-80
2021/03/06 00:21:09;;;;;;;14.73;6.60;;;;;;;-2.11;100.00;103371.97;5215791;28;20095;-80
2021/03/06 00:23:39;;;;;;;20.67;6.88;;;;;;;-2.09;100.00;103382.47;5227434;28;20420;-81
2021/03/06 00:26:10;;;;;;;18.63;6.30;;;;;;;-2.08;100.00;103378.94;5240469;28;20094;-80
2021/03/06 00:28:40;;;;;;;16.67;7.03;;;;;;;-2.14;100.00;103371.16;5220106;28;20435;-80
2021/03/06 00:31:11;;;;;;;21.40;6.93;;;;;;;-2.15;100.00;103372.03;5216075;28;20055;-81
2021/03/06 00:33:41;;;;;;;16.52;6.00;;;;;;;-2.18;100.00;103377.34;5203753;28;20034;-81
2021/03/06 00:36:11;;;;;;;15.98;6.93;;;;;;;-2.16;100.00;103378.19;5219568;28;20018;-80
2021/03/06 00:38:42;;;;;;;22.77;7.45;;;;;;;-2.14;100.00;103379.03;5205581;28;20443;-80
2021/03/06 00:41:12;;;;;;;14.05;6.20;;;;;;;-2.15;100.00;103382.56;5210841;28;20494;-80
2021/03/06 00:43:43;;;;;;;19.55;6.95;;;;;;;-2.12;100.00;103380.75;5214730;28;20033;-80
2021/03/06 00:46:13;;;;;;;15.63;6.18;;;;;;;-2.15;100.00;103372.91;5240797;28;20079;-80
2021/03/06 00:48:44;;;;;;;18.70;6.53;;;;;;;-2.13;100.00;103386.91;5242095;28;20472;-80
2021/03/06 00:51:14;;;;;;;21.20;8.40;;;;;;;-2.15;100.00;103390.47;5221503;28;20030;-80
2021/03/06 00:53:45;;;;;;;12.45;6.10;;;;;;;-2.22;100.00;103388.78;5221497;28;20075;-80
2021/03/06 00:56:16;;;;;;;11.75;6.05;;;;;;;-2.18;100.00;103387.84;5214032;28;20033;-80
2021/03/06 00:58:46;;;;;;;14.65;6.68;;;;;;;-2.22;100.00;103386.16;5210382;28;20029;-80
2021/03/06 01:01:17;;;;;;;19.60;6.75;;;;;;;-2.26;100.00;103376.56;5205851;28;20025;-80
2021/03/06 01:03:47;;;;;;;17.38;6.20;;;;;;;-2.35;100.00;103375.81;5217917;28;20481;-80
2021/03/06 01:06:18;;;;;;;16.88;6.25;;;;;;;-2.41;100.00;103375.91;5204771;28;20029;-80
2021/03/06 01:08:48;;;;;;;16.65;6.40;;;;;;;-2.38;100.00;103370.59;5205841;28;20040;-80
2021/03/06 01:11:19;;;;;;;19.70;6.45;;;;;;;-2.39;100.00;103378.53;5232818;28;20116;-80
2021/03/06 01:13:49;;;;;;;13.93;6.60;;;;;;;-2.42;100.00;103378.56;5226280;28;20028;-81
2021/03/06 01:16:20;;;;;;;11.10;5.47;;;;;;;-2.47;100.00;103367.22;5216920;28;20072;-80
2021/03/06 01:18:51;;;;;;;17.25;7.18;;;;;;;-2.48;100.00;103376.00;5217759;28;20032;-80
2021/03/06 01:21:21;;;;;;;13.50;6.25;;;;;;;-2.54;100.00;103374.34;5204879;28;20374;-80
2021/03/06 01:23:51;;;;;;;20.50;6.70;;;;;;;-2.58;100.00;103377.03;5233961;28;20023;-81
2021/03/06 01:26:22;;;;;;;16.65;6.60;;;;;;;-2.62;100.00;103377.06;5220308;28;20047;-81
2021/03/06 01:28:52;;;;;;;22.88;7.30;;;;;;;-2.63;100.00;103377.06;5220023;28;20089;-80
2021/03/06 01:31:23;;;;;;;21.50;8.52;;;;;;;-2.71;100.00;103378.91;5212950;28;20063;-80
2021/03/06 01:33:53;;;;;;;15.27;6.72;;;;;;;-2.82;100.00;103372.94;5222003;28;20025;-80
2021/03/06 01:36:24;;;;;;;24.38;7.78;;;;;;;-2.92;100.00;103369.53;5216566;28;20029;-81
2021/03/06 01:38:54;;;;;;;19.10;7.10;;;;;;;-3.02;100.00;103360.91;5217989;28;20027;-81
2021/03/06 01:41:25;;;;;;;22.05;6.22;;;;;;;-3.11;100.00;103366.28;5244432;28;20067;-81
2021/03/06 01:43:55;;;;;;;16.77;7.30;;;;;;;-3.23;100.00;103366.41;5245259;28;20075;-81
2021/03/06 01:46:25;;;;;;;18.58;7.00;;;;;;;-3.31;100.00;103365.59;5220120;28;20033;-80
2021/03/06 01:48:56;;;;;;;18.83;7.75;;;;;;;-3.38;100.00;103363.03;5225696;28;20052;-81
2021/03/06 01:51:26;;;;;;;16.55;7.30;;;;;;;-3.43;100.00;103367.47;5220776;28;20622;-80
2021/03/06 01:53:57;;;;;;;17.00;7.80;;;;;;;-3.46;100.00;103359.63;5210185;28;20370;-80
2021/03/06 01:56:31;;;;;;;17.63;8.35;;;;;;;-3.48;100.00;103364.00;5229080;28;20396;-81
2021/03/06 01:59:02;;;;;;;17.20;7.05;;;;;;;-3.53;100.00;103363.19;5215669;28;20057;-81
2021/03/06 02:01:33;;;;;;;20.60;8.40;;;;;;;-3.59;100.00;103357.13;5218035;28;20108;-80
2021/03/06 02:04:03;;;;;;;16.73;7.78;;;;;;;-3.60;100.00;103358.03;5227747;28;20171;-80
2021/03/06 02:06:34;;;;;;;12.48;6.85;;;;;;;-3.61;100.00;103359.78;5215948;28;20030;-80
2021/03/06 02:09:05;;;;;;;13.07;7.15;;;;;;;-3.56;100.00;103357.13;5228632;28;20104;-80
2021/03/06 02:11:56;;;;;;;18.42;7.35;;;;;;;-3.58;100.00;103351.00;5212909;28;20068;-80
2021/03/06 02:14:46;;;;;;;19.88;6.70;;;;;;;-3.61;100.00;103341.41;5207421;28;20438;-80
2021/03/06 02:17:25;;;;;;;17.55;8.63;;;;;;;-3.64;100.00;103346.69;5212537;28;20429;-80
2021/03/06 02:20:16;;;;;;;24.50;7.88;;;;;;;-3.65;100.00;103342.31;5226006;28;20032;-81
2021/03/06 02:23:15;;;;;;;14.27;7.15;;;;;;;-3.67;100.00;103347.56;5208380;28;20461;-81
2021/03/06 02:26:13;;;;;;;17.13;7.53;;;;;;;-3.71;100.00;103345.00;5208622;28;20109;-80
2021/03/06 02:29:26;;;;;;;24.13;9.43;;;;;;;-3.79;100.00;103350.31;5219702;28;20046;-80
2021/03/06 02:31:58;;;;;;;20.77;9.00;;;;;;;-3.86;100.00;103340.75;5208012;28;20554;-81
2021/03/06 02:34:30;;;;;;;17.13;7.97;;;;;;;-3.89;100.00;103343.41;5222061;28;20021;-80
2021/03/06 02:37:07;;;;;;;15.10;7.35;;;;;;;-3.91;100.00;103340.78;5228591;28;20028;-80
2021/03/06 02:39:43;;;;;;;17.02;7.15;;;;;;;-3.92;100.00;103343.41;5215556;28;20116;-80
2021/03/06 02:42:19;;;;;;;20.85;8.57;;;;;;;-3.97;100.00;103334.72;5216697;28;20087;-81
2021/03/06 02:44:51;;;;;;;18.90;7.93;;;;;;;-4.00;100.00;103340.88;5220885;28;20468;-80
2021/03/06 02:47:22;;;;;;;18.55;8.10;;;;;;;-4.01;100.00;103346.13;5209337;28;20116;-80
2021/03/06 02:49:56;;;;;;;23.73;8.60;;;;;;;-4.03;100.00;103345.25;5244025;28;20116;-80
2021/03/06 02:52:27;;;;;;;14.93;7.47;;;;;;;-4.07;100.00;103333.91;5227598;28;20032;-80
2021/03/06 02:54:58;;;;;;;20.65;9.43;;;;;;;-4.08;100.00;103340.03;5217667;28;20444;-80
2021/03/06 02:57:50;;;;;;;17.33;7.72;;;;;;;-4.11;100.00;103336.59;5224666;28;20063;-80
2021/03/06 03:00:37;;;;;;;19.08;7.65;;;;;;;-4.11;100.00;103339.22;5214188;28;20025;-80
2021/03/06 03:03:28;;;;;;;18.42;8.18;;;;;;;-4.13;100.00;103335.72;5217716;28;20025;-80
2021/03/06 03:06:11;;;;;;;18.40;8.35;;;;;;;-4.15;100.00;103333.13;5207420;28;20083;-80
2021/03/06 03:09:10;;;;;;;21.90;8.90;;;;;;;-4.15;100.00;103335.75;5238460;28;20355;-80
2021/03/06 03:11:49;;;;;;;20.58;8.38;;;;;;;-4.14;100.00;103331.34;5225252;28;20472;-80
2021/03/06 03:14:28;;;;;;;21.58;9.05;;;;;;;-4.12;100.00;103338.31;5225916;28;20126;-80
2021/03/06 03:17:02;;;;;;;23.77;9.95;;;;;;;-4.12;100.00;103335.69;5214075;28;20067;-80
2021/03/06 03:19:41;;;;;;;19.70;8.77;;;;;;;-4.14;100.00;103339.22;5227175;28;20029;-80
2021/03/06 03:22:17;;;;;;;23.48;10.15;;;;;;;-4.19;100.00;103334.88;5191067;28;20028;-80
2021/03/06 03:24:51;;;;;;;19.30;8.50;;;;;;;-4.23;100.00;103335.78;5221050;28;20044;-81
2021/03/06 03:27:23;;;;;;;18.08;8.52;;;;;;;-4.24;100.00;103331.41;5216685;28;20493;-80
2021/03/06 03:29:54;;;;;;;15.93;9.13;;;;;;;-4.26;100.00;103337.56;5219771;28;20029;-80
2021/03/06 03:32:26;;;;;;;33.15;9.93;;;;;;;-4.24;100.00;103333.19;5206240;28;20029;-80
2021/03/06 03:34:58;;;;;;;20.80;10.02;;;;;;;-4.24;100.00;103328.81;5206386;28;20516;-80
2021/03/06 03:37:29;;;;;;;19.83;10.30;;;;;;;-4.24;100.00;103335.78;5220060;28;20059;-80
2021/03/06 03:40:00;;;;;;;30.02;9.48;;;;;;;-4.24;100.00;103338.41;5217849;28;20516;-80
2021/03/06 03:42:33;;;;;;;20.88;10.32;;;;;;;-4.27;100.00;103334.06;5204708;28;20026;-80
2021/03/06 03:45:07;;;;;;;26.02;10.13;;;;;;;-4.27;100.00;103338.44;5215320;28;20523;-81
2021/03/06 03:47:39;;;;;;;20.20;9.02;;;;;;;-4.29;100.00;103340.19;5209677;28;20503;-81
2021/03/06 03:50:12;;;;;;;20.70;9.80;;;;;;;-4.29;100.00;103337.56;5216437;28;20064;-80
2021/03/06 03:52:46;;;;;;;17.88;9.10;;;;;;;-4.28;100.00;103340.19;5207394;28;20025;-80
2021/03/06 03:55:18;;;;;;;29.80;11.52;;;;;;;-4.30;100.00;103334.09;5204600;28;20455;-80
2021/03/06 03:57:48;;;;;;;14.52;8.07;;;;;;;-4.29;100.00;103337.56;5221118;28;20029;-80
2021/03/06 04:00:20;;;;;;;22.83;9.52;;;;;;;-4.30;100.00;103339.34;5206276;28;20027;-81
2021/03/06 04:02:51;;;;;;;25.75;10.10;;;;;;;-4.30;100.00;103343.72;5225644;28;20036;-80
2021/03/06 04:05:21;;;;;;;19.33;9.27;;;;;;;-4.33;100.00;103344.56;5221098;28;20025;-81
2021/03/06 04:07:51;;;;;;;19.88;9.88;;;;;;;-4.35;100.00;103340.25;5204554;28;20550;-80
2021/03/06 04:10:24;;;;;;;19.10;8.73;;;;;;;-4.36;100.00;103351.63;5218149;28;20135;-81
2021/03/06 04:12:56;;;;;;;17.95;9.02;;;;;;;-4.35;100.00;103356.84;5204095;28;20112;-81
2021/03/06 04:15:27;;;;;;;16.65;8.68;;;;;;;-4.31;100.00;103357.69;5222337;28;20017;-80
2021/03/06 04:17:57;;;;;;;20.13;8.95;;;;;;;-4.30;100.00;103351.56;5218429;28;20028;-81
2021/03/06 04:20:27;;;;;;;21.27;8.50;;;;;;;-4.30;100.00;103352.44;5218184;28;20029;-81
2021/03/06 04:22:59;;;;;;;21.75;10.27;;;;;;;-4.30;100.00;103362.91;5204126;28;20026;-81
2021/03/06 04:25:30;;;;;;;18.75;9.20;;;;;;;-4.34;100.00;103368.19;5216686;28;20104;-80
2021/03/06 04:28:00;;;;;;;18.83;9.57;;;;;;;-4.40;100.00;103366.47;5203843;28;20120;-80
2021/03/06 04:30:31;;;;;;;20.80;10.50;;;;;;;-4.42;100.00;103368.22;5205433;28;20461;-81
2021/03/06 04:33:02;;;;;;;20.95;10.30;;;;;;;-4.47;100.00;103359.50;5208802;28;20075;-80
2021/03/06 04:35:32;;;;;;;24.30;11.18;;;;;;;-4.50;100.00;103364.78;5215740;28;20031;-80
2021/03/06 04:38:03;;;;;;;23.63;10.95;;;;;;;-4.53;100.00;103365.66;5219008;28;20116;-80
2021/03/06 04:40:33;;;;;;;19.42;9.32;;;;;;;-4.55;100.00;103369.19;5203340;28;20036;-80
2021/03/06 04:43:03;;;;;;;19.80;9.23;;;;;;;-4.57;100.00;103368.31;5204447;28;20033;-80
2021/03/06 04:45:34;;;;;;;21.65;9.13;;;;;;;-4.65;100.00;103368.34;5217522;28;20120;-80
2021/03/06 04:48:05;;;;;;;27.50;11.80;;;;;;;-4.70;100.00;103376.22;5240760;28;20377;-80
2021/03/06 04:50:35;;;;;;;27.48;11.20;;;;;;;-4.71;100.00;103373.63;5211560;28;20033;-80
2021/03/06 04:53:06;;;;;;;25.50;9.35;;;;;;;-4.75;100.00;103375.38;5215531;28;20515;-80
2021/03/06 04:55:36;;;;;;;29.52;11.07;;;;;;;-4.76;100.00;103378.88;5217331;28;20542;-80
2021/03/06 04:58:07;;;;;;;24.88;10.40;;;;;;;-4.79;100.00;103375.41;5214138;28;20033;-80
2021/03/06 05:00:37;;;;;;;25.90;12.55;;;;;;;-4.78;100.00;103374.50;5235863;28;20108;-80
2021/03/06 05:03:08;;;;;;;26.17;11.10;;;;;;;-4.78;100.00;103375.38;5221472;28;20033;-80
2021/03/06 05:05:38;;;;;;;19.63;10.85;;;;;;;-4.80;100.00;103377.16;5225456;28;20028;-80
2021/03/06 05:08:09;;;;;;;33.38;13.32;;;;;;;-4.81;100.00;103370.16;5215741;28;20029;-80
2021/03/06 05:10:39;;;;;;;21.77;10.73;;;;;;;-4.81;100.00;103372.78;5213673;28;20025;-80
2021/03/06 05:13:10;;;;;;;24.40;11.40;;;;;;;-4.82;100.00;103380.63;5214935;28;20388;-80
2021/03/06 05:15:40;;;;;;;22.42;10.90;;;;;;;-4.84;100.00;103378.03;5208352;28;20437;-80
2021/03/06 05:18:11;;;;;;;24.20;11.80;;;;;;;-4.85;100.00;103378.03;5221129;28;20381;-80
2021/03/06 05:20:41;;;;;;;27.65;12.75;;;;;;;-4.86;100.00;103381.53;5215559;28;20025;-80
2021/03/06 05:23:12;;;;;;;25.00;13.32;;;;;;;-4.85;100.00;103380.66;5225733;28;20392;-80
2021/03/06 05:25:42;;;;;;;25.10;12.10;;;;;;;-4.86;100.00;103374.56;5232745;28;20029;-80
2021/03/06 05:28:18;;;;;;;22.13;10.73;;;;;;;-4.84;100.00;103371.91;5229269;28;20056;-80
2021/03/06 05:30:50;;;;;;;20.17;10.70;;;;;;;-4.83;100.00;103384.13;5217928;28;20021;-80
2021/03/06 05:33:21;;;;;;;25.77;11.65;;;;;;;-4.85;100.00;103378.91;5213663;28;20558;-80
2021/03/06 05:35:51;;;;;;;28.73;12.80;;;;;;;-4.85;100.00;103372.81;5227124;28;20021;-80
2021/03/06 05:38:21;;;;;;;26.90;11.30;;;;;;;-4.90;100.00;103379.81;5207117;28;20021;-80
2021/03/06 05:40:52;;;;;;;24.02;10.73;;;;;;;-4.97;100.00;103385.06;5221240;28;20112;-80
2021/03/06 05:43:23;;;;;;;30.55;11.40;;;;;;;-5.00;100.00;103392.91;5208114;28;20033;-82
2021/03/06 05:45:55;;;;;;;23.55;11.57;;;;;;;-5.01;100.00;103395.56;5223855;28;20147;-82
2021/03/06 05:48:25;;;;;;;29.83;12.45;;;;;;;-5.00;100.00;103402.53;5217877;28;20104;-82
2021/03/06 05:50:56;;;;;;;24.00;11.35;;;;;;;-5.02;100.00;103399.91;5206733;28;20112;-82
2021/03/06 05:53:29;;;;;;;23.77;11.50;;;;;;;-5.06;100.00;103395.56;5207929;28;20481;-82
2021/03/06 05:56:03;;;;;;;22.77;11.00;;;;;;;-5.10;100.00;103399.06;5226144;28;20029;-83
2021/03/06 05:58:34;;;;;;;25.15;11.43;;;;;;;-5.11;100.00;103399.06;5207828;28;20029;-82
2021/03/06 06:01:05;;;;;;;26.67;10.70;;;;;;;-5.11;100.00;103397.31;5217430;28;20064;-82
2021/03/06 06:03:35;;;;;;;24.98;10.73;;;;;;;-5.10;100.00;103393.81;5215750;28;20057;-82
2021/03/06 06:06:06;;;;;;;34.20;12.45;;;;;;;-5.10;100.00;103404.28;5245577;28;20468;-80
2021/03/06 06:08:37;;;;;;;24.60;9.93;;;;;;;-5.10;100.00;103401.69;5215766;28;20032;-82
2021/03/06 06:11:08;;;;;;;26.83;11.10;;;;;;;-5.14;100.00;103397.31;5218897;28;20025;-83
2021/03/06 06:13:38;;;;;;;28.90;13.82;;;;;;;-5.15;100.00;103392.09;5222980;28;20017;-82
2021/03/06 06:16:08;;;;;;;24.65;12.35;;;;;;;-5.15;100.00;103389.47;5210402;28;20021;-82
2021/03/06 06:18:39;;;;;;;27.88;12.18;;;;;;;-5.15;100.00;103384.25;5208261;28;20159;-81
2021/03/06 06:21:36;;;;;;;27.50;10.52;;;;;;;-5.15;100.00;103385.13;5219463;28;20033;-80
2021/03/06 06:24:16;;;;;;;24.42;11.80;;;;;;;-5.15;100.00;103385.13;5218931;28;20396;-80
2021/03/06 06:26:59;;;;;;;28.83;12.68;;;;;;;-5.12;100.00;103386.84;5223270;28;20512;-80
2021/03/06 06:29:45;;;;;;;26.13;12.23;;;;;;;-5.09;100.00;103381.59;5207514;28;20488;-80
2021/03/06 06:32:19;;;;;;;35.47;14.30;;;;;;;-5.01;100.00;103390.31;5216194;28;20056;-80
2021/03/06 06:35:07;;;;;;;40.78;14.93;;;;;;;-4.94;100.00;103389.41;5225335;28;20060;-80
2021/03/06 06:37:38;;;;;;;23.05;11.93;;;;;;;-4.89;100.00;103389.41;5214494;28;20029;-80
2021/03/06 06:40:19;;;;;;;25.20;11.65;;;;;;;-4.85;100.00;103392.00;5228878;28;20025;-78
2021/03/06 06:42:49;;;;;;;32.13;13.30;;;;;;;-4.80;100.00;103392.84;5221513;28;20369;-77
2021/03/06 06:45:20;;;;;;;37.75;13.13;;;;;;;-4.71;100.00;103391.97;5217641;28;20029;-79
2021/03/06 06:47:52;;;;;;;42.38;13.43;;;;;;;-4.53;100.00;103396.22;5209860;28;20021;-79
2021/03/06 06:50:32;;;;;;;40.63;12.82;;;;;;;-4.37;100.00;103404.88;5200536;28;606350;-79
2021/03/06 06:53:03;;;;;;;28.23;12.25;;;;;;;-4.23;100.00;103408.31;5233436;28;20021;-79
2021/03/06 06:55:35;;;;;;;25.90;12.73;;;;;;;-4.11;100.00;103412.63;5229549;28;20021;-79
2021/03/06 06:58:06;;;;;;;26.38;12.93;;;;;;;-3.94;100.00;103408.13;5230570;28;20028;-79
2021/03/06 07:00:36;;;;;;;26.98;13.35;;;;;;;-3.77;100.00;103411.47;5229949;28;20377;-79
2021/03/06 07:03:07;;;;;;;32.40;14.40;;;;;;;-3.59;100.00;103417.50;5230155;28;20029;-80
2021/03/06 07:05:39;;;;;;;23.25;12.77;;;;;;;-3.46;100.00;103416.50;5215468;28;20025;-77
2021/03/06 07:08:25;;;;;;;32.70;15.10;;;;;;;-3.38;100.00;103422.53;5217327;28;20048;-80
2021/03/06 07:10:57;;;;;;;27.48;14.20;;;;;;;-3.31;100.00;103421.63;5214468;28;20025;-80
2021/03/06 07:13:40;;;;;;;32.78;14.50;;;;;;;-3.22;100.00;103425.88;5213064;28;20029;-77
2021/03/06 07:16:10;;;;;;;30.67;15.38;;;;;;;-3.13;100.00;103428.44;5209205;28;20388;-80
2021/03/06 07:18:41;;;;;;;31.42;14.45;;;;;;;-3.04;100.00;103443.25;5224268;28;20032;-80
2021/03/06 07:21:11;;;;;;;35.38;14.30;;;;;;;-2.98;100.00;103437.91;5215754;28;20086;-80
2021/03/06 07:23:42;;;;;;;32.85;14.45;;;;;;;-2.90;100.00;103442.22;5225139;28;20114;-79
2021/03/06 07:26:12;;;;;;;28.92;14.27;;;;;;;-2.81;100.00;103441.25;5226143;28;20036;-80
2021/03/06 07:28:43;;;;;;;39.20;15.05;;;;;;;-2.75;100.00;103443.81;5219532;28;20432;-79
2021/03/06 07:31:16;;;;;;;30.95;14.05;;;;;;;-2.68;100.00;103447.22;5205124;28;20366;-80
2021/03/06 07:33:46;;;;;;;31.20;15.25;;;;;;;-2.55;100.00;103443.56;5204273;28;20041;-81
2021/03/06 07:36:18;;;;;;;28.20;13.82;;;;;;;-2.45;100.00;103437.31;5224169;28;20096;-80
2021/03/06 07:38:48;;;;;;;28.30;14.55;;;;;;;-2.35;100.00;103449.44;5215133;28;20017;-80
2021/03/06 07:41:23;;;;;;;35.92;14.50;;;;;;;-2.27;100.00;103448.47;5225907;28;20518;-80
2021/03/06 07:43:54;;;;;;;27.13;13.15;;;;;;;-2.22;100.00;103447.50;5212306;28;20507;-81
2021/03/06 07:46:26;;;;;;;34.63;13.88;;;;;;;-2.14;100.00;103444.78;5227108;28;20032;-79
2021/03/06 07:49:00;;;;;;;30.98;13.63;;;;;;;-2.08;100.00;103450.81;5230863;28;20033;-81
2021/03/06 07:51:31;;;;;;;29.63;13.25;;;;;;;-2.01;100.00;103456.00;5238946;28;20029;-80
2021/03/06 07:54:04;;;;;;;26.23;13.70;;;;;;;-1.93;100.00;103447.13;5228671;28;20100;-81
2021/03/06 07:56:37;;;;;;;24.58;13.20;;;;;;;-1.80;100.00;103447.81;5246188;28;20021;-80
2021/03/06 07:59:07;;;;;;;32.97;13.77;;;;;;;-1.69;100.00;103442.38;5222681;28;20021;-80
2021/03/06 08:01:38;;;;;;;26.52;14.02;;;;;;;-1.56;100.00;103449.16;5208632;28;20021;-81
2021/03/06 08:04:35;;;;;;;34.67;13.82;;;;;;;-1.36;100.00;103449.72;5215507;28;20488;-80
2021/03/06 08:07:14;;;;;;;29.67;13.55;;;;;;;-1.21;100.00;103453.84;5225695;28;20052;-81
2021/03/06 08:09:59;;;;;;;35.15;13.45;;;;;;;-1.02;100.00;103451.75;5210006;28;20034;-81
2021/03/06 08:12:31;;;;;;;25.93;13.03;;;;;;;-0.88;100.00;103447.09;5198369;28;20052;-82
2021/03/06 08:15:27;;;;;;;33.33;14.02;;;;;;;-0.73;100.00;103440.66;5211251;28;20367;-81
2021/03/06 08:18:00;;;;;;;32.30;12.85;;;;;;;-0.62;100.00;103441.31;5214165;28;20025;-82
2021/03/06 08:20:32;;;;;;;19.65;10.88;;;;;;;-0.53;100.00;103438.50;5229462;28;20057;-80
2021/03/06 08:23:18;;;;;;;31.50;12.88;;;;;;;-0.40;100.00;103438.22;5216672;28;20132;-82
2021/03/06 08:26:17;;;;;;;31.33;12.48;;;;;;;-0.27;100.00;103437.94;5211520;28;20026;-81
2021/03/06 08:28:48;;;;;;;29.83;12.40;;;;;;;-0.13;100.00;103439.44;5219324;28;20032;-82
2021/03/06 08:31:41;;;;;;;30.00;12.48;;;;;;;-0.02;100.00;103442.69;5219053;28;20043;-82
2021/03/06 08:34:41;;;;;;;22.13;10.70;;;;;;;0.05;100.00;103439.03;5217018;28;20028;-81
2021/03/06 08:37:14;;;;;;;31.20;12.27;;;;;;;0.14;100.00;103440.56;5209303;28;20508;-81
2021/03/06 08:39:57;;;;;;;19.55;10.50;;;;;;;0.25;100.00;103425.34;5214831;28;20025;-81
2021/03/06 08:42:30;;;;;;;37.80;11.18;;;;;;;0.31;100.00;103438.41;5228139;28;20025;-81
2021/03/06 08:45:06;;;;;;;22.08;11.15;;;;;;;0.46;100.00;103443.31;5234071;28;20468;-81
2021/03/06 08:47:39;;;;;;;24.45;10.27;;;;;;;0.57;100.00;103439.53;5210092;28;20584;-81
2021/03/06 08:50:12;;;;;;;22.63;10.68;;;;;;;0.75;100.00;103434.66;5216033;28;20041;-80
2021/03/06 08:52:54;;;;;;;21.13;11.00;;;;;;;1.02;100.00;103430.41;5207627;28;20025;-81
2021/03/06 08:55:28;;;;;;;20.08;10.02;;;;;;;1.25;100.00;103432.41;5205527;28;20369;-81
2021/03/06 08:58:01;;;;;;;19.33;9.77;;;;;;;1.41;100.00;103438.16;5207311;28;20489;-81
2021/03/06 09:00:37;;;;;;;21.02;9.75;;;;;;;1.58;100.00;103436.78;5209899;28;20024;-81
2021/03/06 09:03:09;;;;;;;;;;;;;;;1.70;100.00;103429.34;5216321;28;20033;-81
2021/03/06 09:05:42;;;;;;;20.58;9.13;;;;;;;1.84;100.00;103436.00;5220414;28;19983;-82
2021/03/06 09:08:12;;;;;;;28.35;9.65;;;;;;;2.03;100.00;103440.69;5219947;28;20039;-81
2021/03/06 09:10:44;;;;;;;26.67;9.90;;;;;;;2.21;100.00;103439.25;5206061;28;20026;-81
2021/03/06 09:13:19;;;;;;;17.73;8.57;;;;;;;2.41;100.00;103433.31;5220002;28;20021;-81
2021/03/06 09:15:53;;;;;;;20.38;9.02;;;;;;;2.52;100.00;103432.97;5225602;28;20022;-81
2021/03/06 09:18:26;;;;;;;25.77;8.95;;;;;;;2.65;100.00;103428.09;5210816;28;20104;-81
2021/03/06 09:21:05;;;;;;;14.85;8.32;;;;;;;2.87;100.00;103423.81;5226722;28;20060;-81
2021/03/06 09:23:39;;;;;;;19.10;8.13;;;;;;;3.19;100.00;103425.31;5206411;28;20072;-81
2021/03/06 09:26:13;;;;;;;15.20;7.05;;;;;;;3.34;100.00;103434.50;5220215;28;20108;-82
2021/03/06 09:28:46;;;;;;;20.17;7.70;;;;;;;3.45;100.00;103437.63;5227160;28;20387;-81
2021/03/06 09:31:21;;;;;;;15.45;6.55;;;;;;;3.66;100.00;103435.06;5224405;28;20029;-82
2021/03/06 09:33:51;;;;;;;14.90;6.30;;;;;;;3.75;100.00;103430.28;5207450;28;20075;-80
2021/03/06 09:36:27;;;;;;;9.00;5.68;;;;;;;3.82;100.00;103433.59;5227207;28;20021;-80
2021/03/06 09:39:00;;;;;;;12.93;6.43;;;;;;;3.94;100.00;103438.41;5215537;28;20025;-79
2021/03/06 09:41:33;;;;;;;10.55;6.10;;;;;;;3.99;100.00;103436.44;5220900;28;20368;-79
2021/03/06 09:44:06;;;;;;;10.55;5.57;;;;;;;4.07;100.00;103446.78;5220280;28;20090;-82
2021/03/06 09:46:37;;;;;;;13.18;6.15;;;;;;;4.06;100.00;103439.72;5227249;28;20476;-81
2021/03/06 09:49:10;;;;;;;10.20;4.82;;;;;;;4.24;100.00;103430.16;5229029;28;20025;-82
2021/03/06 09:51:44;;;;;;;16.67;5.00;;;;;;;4.43;100.00;103432.94;5219702;28;20033;-81
2021/03/06 09:54:16;;;;;;;9.70;5.13;;;;;;;4.44;100.00;103430.19;5238880;28;20087;-79
2021/03/06 09:56:54;;;;;;;10.68;4.65;;;;;;;4.54;100.00;103430.69;5222830;28;20052;-80
2021/03/06 09:59:27;;;;;;;12.07;4.25;;;;;;;4.65;94.37;103431.94;5209545;28;20034;-82
2021/03/06 10:02:06;;;;;;;11.02;4.03;;;;;;;4.72;89.50;103427.25;5210005;28;20492;-82
2021/03/06 10:04:37;;;;;;;9.18;4.55;;;;;;;4.77;100.00;103422.59;5218926;28;20036;-82
2021/03/06 10:07:10;;;;;;;9.02;4.60;;;;;;;4.93;94.19;103431.66;5230089;28;20116;-82
2021/03/06 10:09:41;;;;;;;10.18;4.57;;;;;;;5.06;85.02;103426.63;5229681;28;20530;-81
2021/03/06 10:12:15;;;;;;;8.52;4.18;;;;;;;5.16;71.21;103421.78;5214099;28;20084;-82
2021/03/06 10:14:48;;;;;;;8.15;3.97;;;;;;;5.22;69.77;103420.63;5229126;28;20021;-82
2021/03/06 10:17:24;;;;;;;6.60;4.28;;;;;;;5.25;66.74;103416.03;5219520;28;20024;-82
2021/03/06 10:19:54;;;;;;;;;;;;;;;5.31;62.51;103415.75;5216033;28;20033;-82
2021/03/06 10:22:25;;;;;;;8.48;4.57;;;;;;;5.36;73.68;103411.09;5219305;28;19912;-81
2021/03/06 10:24:58;;;;;;;16.15;5.05;;;;;;;5.51;70.47;103406.88;5207973;28;20029;-82
2021/03/06 10:27:35;;;;;;;7.63;4.10;;;;;;;5.50;62.48;103412.28;5190455;28;20030;-81
2021/03/06 10:30:11;;;;;;;12.38;4.25;;;;;;;5.44;71.35;103418.75;5220470;28;20083;-82
2021/03/06 10:32:51;;;;;;;7.18;3.50;;;;;;;5.58;57.39;103413.66;5229128;28;20037;-82
2021/03/06 10:35:35;;;;;;;7.20;3.83;;;;;;;5.73;59.22;103409.41;5231274;28;20503;-82
2021/03/06 10:38:08;;;;;;;8.98;3.63;;;;;;;5.78;55.26;103411.84;5225239;28;20473;-82
2021/03/06 10:40:42;;;;;;;9.77;4.22;;;;;;;5.76;55.77;103413.72;5222570;28;20094;-82
2021/03/06 10:43:40;;;;;;;13.70;4.55;;;;;;;5.79;56.88;103409.09;5218986;28;20033;-82
2021/03/06 10:46:18;;;;;;;7.60;3.20;;;;;;;5.89;51.96;103410.41;5225226;28;20063;-81
2021/03/06 10:48:54;;;;;;;7.55;4.07;;;;;;;6.01;53.61;103408.09;5227830;28;20029;-82
2021/03/06 10:51:39;;;;;;;7.90;4.00;;;;;;;6.12;54.72;103403.09;5222194;28;20085;-82
2021/03/06 10:54:10;;;;;;;;;;;;;;;6.10;55.75;103403.19;5206018;28;20048;-81
2021/03/06 10:56:42;;;;;;;8.15;4.03;;;;;;;6.18;54.16;103395.69;5207232;28;19913;-82
2021/03/06 10:59:12;;;;;;;6.53;4.28;;;;;;;6.14;54.78;103398.59;5206568;28;20026;-81
2021/03/06 11:01:45;;;;;;;9.35;4.32;;;;;;;6.19;54.67;103400.09;5217599;28;20021;-82
2021/03/06 11:04:25;;;;;;;9.18;3.85;;;;;;;6.18;52.94;103398.38;5226157;28;20033;-81
2021/03/06 11:06:58;;;;;;;9.20;5.32;;;;;;;6.27;52.20;103396.16;5225259;28;20116;-81
2021/03/06 11:09:32;;;;;;;7.82;3.80;;;;;;;6.44;54.45;103385.53;5216631;28;20072;-81
2021/03/06 11:12:19;;;;;;;7.53;3.92;;;;;;;6.33;53.48;103387.88;5219217;28;20497;-82
2021/03/06 11:15:07;;;;;;;9.25;4.30;;;;;;;6.21;53.33;103394.66;5204794;28;20028;-82
2021/03/06 11:17:41;;;;;;;7.22;3.90;;;;;;;6.24;51.75;103399.84;5209648;28;20401;-82
2021/03/06 11:20:19;;;;;;;8.18;3.78;;;;;;;6.26;51.93;103389.13;5227429;28;20353;-81
2021/03/06 11:22:49;;;;;;;8.25;3.88;;;;;;;6.35;52.17;103392.19;5230204;28;20025;-81
2021/03/06 11:25:21;;;;;;;7.82;3.83;;;;;;;6.59;52.63;103378.56;5221467;28;20030;-81
2021/03/06 11:28:01;;;;;;;9.02;4.05;;;;;;;6.67;52.72;103379.00;5223858;28;20021;-82
2021/03/06 11:30:34;;;;;;;6.55;3.90;;;;;;;6.71;54.61;103378.78;5219307;28;20026;-82
2021/03/06 11:33:07;;;;;;;6.68;3.63;;;;;;;6.83;52.51;103373.72;5217414;28;20094;-81
2021/03/06 11:35:38;;;;;;;10.35;3.92;;;;;;;6.75;47.78;103375.00;5217856;28;20096;-82
2021/03/06 11:38:10;;;;;;;7.15;3.50;;;;;;;6.80;48.90;103369.44;5227142;28;20046;-82
2021/03/06 11:40:43;;;;;;;7.63;3.80;;;;;;;7.03;50.10;103367.34;5215891;28;20029;-82
2021/03/06 11:43:15;;;;;;;6.35;3.40;;;;;;;7.18;50.95;103375.41;5202977;28;20150;-82